sensor_id;sensor_type;location;lat;lon;timestamp;pressure;altitude;pressure_sealevel;temperature
69007;BMP180;56061;51.748;19.620;2022-09-20T00:01:28;98532.40;;;10.20
69007;BMP180;56061;51.748;19.620;2022-09-20T00:04:00;98543.60;;;10.20
69007;BMP180;56061;51.748;19.620;2022-09-20T00:06:29;98541.20;;;10.20
69007;BMP180;56061;51.748;19.620;2022-09-20T00:08:57;98537.40;;;10.20
69007;BMP180;56061;51.748;19.620;2022-09-20T00:11:29;98533.40;;;10.22
69007;BMP180;56061;51.748;19.620;2022-09-20T00:13:58;98532.00;;;10.20
69007;BMP180;56061;51.748;19.620;2022-09-20T00:16:33;98535.40;;;10.20
69007;BMP180;56061;51.748;19.620;2022-09-20T00:19:02;98534.20;;;10.18
69007;BMP180;56061;51.748;19.620;2022-09-20T00:21:31;98540.20;;;10.12
69007;BMP180;56061;51.748;19.620;2022-09-20T00:23:59;98540.00;;;10.10
69007;BMP180;56061;51.748;19.620;2022-09-20T00:26:27;98548.00;;;10.10
69007;BMP180;56061;51.748;19.620;2022-09-20T00:28:54;98550.60;;;10.00
69007;BMP180;56061;51.748;19.620;2022-09-20T00:31:21;98550.20;;;9.90
69007;BMP180;56061;51.748;19.620;2022-09-20T00:33:48;98549.00;;;9.90
69007;BMP180;56061;51.748;19.620;2022-09-20T00:36:33;98554.80;;;9.90
69007;BMP180;56061;51.748;19.620;2022-09-20T00:39:01;98555.40;;;9.90
69007;BMP180;56061;51.748;19.620;2022-09-20T00:41:30;98558.20;;;9.80
69007;BMP180;56061;51.748;19.620;2022-09-20T00:43:57;98557.00;;;9.70
69007;BMP180;56061;51.748;19.620;2022-09-20T00:49:07;98560.40;;;9.70
69007;BMP180;56061;51.748;19.620;2022-09-20T00:51:43;98561.80;;;9.70
69007;BMP180;56061;51.748;19.620;2022-09-20T00:54:14;98561.60;;;9.60
69007;BMP180;56061;51.748;19.620;2022-09-20T00:56:47;98560.40;;;9.60
69007;BMP180;56061;51.748;19.620;2022-09-20T00:59:38;98559.40;;;9.60
69007;BMP180;56061;51.748;19.620;2022-09-20T01:02:11;98556.40;;;9.46
69007;BMP180;56061;51.748;19.620;2022-09-20T01:04:41;98560.00;;;9.40
69007;BMP180;56061;51.748;19.620;2022-09-20T01:07:15;98561.00;;;9.22
69007;BMP180;56061;51.748;19.620;2022-09-20T01:09:42;98558.60;;;9.20
69007;BMP180;56061;51.748;19.620;2022-09-20T01:12:17;98559.40;;;9.20
69007;BMP180;56061;51.748;19.620;2022-09-20T01:14:47;98560.60;;;9.30
69007;BMP180;56061;51.748;19.620;2022-09-20T01:17:18;98562.60;;;9.30
69007;BMP180;56061;51.748;19.620;2022-09-20T01:23:17;98559.20;;;9.14
69007;BMP180;56061;51.748;19.620;2022-09-20T01:28:36;98562.60;;;9.10
69007;BMP180;56061;51.748;19.620;2022-09-20T01:31:14;98567.40;;;9.10
69007;BMP180;56061;51.748;19.620;2022-09-20T01:33:56;98568.20;;;9.00
69007;BMP180;56061;51.748;19.620;2022-09-20T01:39:32;98568.40;;;9.00
69007;BMP180;56061;51.748;19.620;2022-09-20T01:42:11;98566.80;;;9.00
69007;BMP180;56061;51.748;19.620;2022-09-20T01:47:47;98559.60;;;9.10
69007;BMP180;56061;51.748;19.620;2022-09-20T01:59:17;98553.00;;;9.04
69007;BMP180;56061;51.748;19.620;2022-09-20T02:13:31;98559.60;;;9.14
69007;BMP180;56061;51.748;19.620;2022-09-20T02:19:27;98559.00;;;9.22
69007;BMP180;56061;51.748;19.620;2022-09-20T02:24:57;98562.00;;;9.30
69007;BMP180;56061;51.748;19.620;2022-09-20T02:27:58;98568.40;;;9.40
69007;BMP180;56061;51.748;19.620;2022-09-20T02:31:01;98562.60;;;9.50
69007;BMP180;56061;51.748;19.620;2022-09-20T02:33:51;98567.20;;;9.50
69007;BMP180;56061;51.748;19.620;2022-09-20T02:36:55;98561.80;;;9.58
69007;BMP180;56061;51.748;19.620;2022-09-20T02:39:51;98565.80;;;9.60
69007;BMP180;56061;51.748;19.620;2022-09-20T02:42:45;98568.80;;;9.60
69007;BMP180;56061;51.748;19.620;2022-09-20T02:45:26;98572.40;;;9.60
69007;BMP180;56061;51.748;19.620;2022-09-20T02:48:02;98577.40;;;9.68
69007;BMP180;56061;51.748;19.620;2022-09-20T02:50:48;98577.40;;;9.70
69007;BMP180;56061;51.748;19.620;2022-09-20T02:53:50;98577.20;;;9.70
69007;BMP180;56061;51.748;19.620;2022-09-20T02:56:42;98574.60;;;9.78
69007;BMP180;56061;51.748;19.620;2022-09-20T03:02:27;98582.60;;;9.80
69007;BMP180;56061;51.748;19.620;2022-09-20T03:05:18;98580.00;;;9.80
69007;BMP180;56061;51.748;19.620;2022-09-20T03:08:09;98584.20;;;9.70
69007;BMP180;56061;51.748;19.620;2022-09-20T03:11:17;98587.00;;;9.70
69007;BMP180;56061;51.748;19.620;2022-09-20T03:14:04;98590.40;;;9.80
69007;BMP180;56061;51.748;19.620;2022-09-20T03:17:03;98593.60;;;9.90
69007;BMP180;56061;51.748;19.620;2022-09-20T03:23:00;98592.20;;;10.00
69007;BMP180;56061;51.748;19.620;2022-09-20T03:25:54;98592.00;;;10.04
69007;BMP180;56061;51.748;19.620;2022-09-20T03:28:45;98593.00;;;10.10
69007;BMP180;56061;51.748;19.620;2022-09-20T03:31:50;98590.80;;;10.10
69007;BMP180;56061;51.748;19.620;2022-09-20T03:37:34;98593.80;;;10.10
69007;BMP180;56061;51.748;19.620;2022-09-20T03:43:53;98605.60;;;10.10
69007;BMP180;56061;51.748;19.620;2022-09-20T03:49:36;98606.80;;;10.10
69007;BMP180;56061;51.748;19.620;2022-09-20T03:52:42;98605.40;;;10.10
69007;BMP180;56061;51.748;19.620;2022-09-20T03:55:44;98612.20;;;10.00
69007;BMP180;56061;51.748;19.620;2022-09-20T04:02:04;98608.60;;;9.90
69007;BMP180;56061;51.748;19.620;2022-09-20T04:04:51;98613.80;;;9.80
69007;BMP180;56061;51.748;19.620;2022-09-20T04:10:40;98613.00;;;9.70
69007;BMP180;56061;51.748;19.620;2022-09-20T04:13:34;98615.80;;;9.70
69007;BMP180;56061;51.748;19.620;2022-09-20T04:16:21;98619.80;;;9.60
69007;BMP180;56061;51.748;19.620;2022-09-20T04:18:57;98620.40;;;9.60
69007;BMP180;56061;51.748;19.620;2022-09-20T04:21:38;98624.80;;;9.50
69007;BMP180;56061;51.748;19.620;2022-09-20T04:27:10;98626.80;;;9.50
69007;BMP180;56061;51.748;19.620;2022-09-20T04:33:07;98630.00;;;9.60
69007;BMP180;56061;51.748;19.620;2022-09-20T04:39:32;98634.20;;;9.60
69007;BMP180;56061;51.748;19.620;2022-09-20T04:42:44;98637.00;;;9.60
69007;BMP180;56061;51.748;19.620;2022-09-20T05:01:14;98635.20;;;9.90
69007;BMP180;56061;51.748;19.620;2022-09-20T05:04:13;98637.60;;;9.90
69007;BMP180;56061;51.748;19.620;2022-09-20T05:10:34;98643.40;;;10.00
69007;BMP180;56061;51.748;19.620;2022-09-20T05:28:35;98665.20;;;10.10
69007;BMP180;56061;51.748;19.620;2022-09-20T05:31:20;98672.40;;;10.20
69007;BMP180;56061;51.748;19.620;2022-09-20T05:34:21;98675.80;;;10.24
69007;BMP180;56061;51.748;19.620;2022-09-20T05:39:37;98689.00;;;10.30
69007;BMP180;56061;51.748;19.620;2022-09-20T05:42:19;98689.20;;;10.30
69007;BMP180;56061;51.748;19.620;2022-09-20T05:47:48;98693.00;;;10.20
69007;BMP180;56061;51.748;19.620;2022-09-20T05:54:23;98702.80;;;10.30
69007;BMP180;56061;51.748;19.620;2022-09-20T05:57:15;98702.60;;;10.30
69007;BMP180;56061;51.748;19.620;2022-09-20T06:00:13;98703.00;;;10.40
69007;BMP180;56061;51.748;19.620;2022-09-20T06:03:23;98704.20;;;10.40
69007;BMP180;56061;51.748;19.620;2022-09-20T06:06:20;98709.40;;;10.40
69007;BMP180;56061;51.748;19.620;2022-09-20T06:09:18;98706.00;;;10.40
69007;BMP180;56061;51.748;19.620;2022-09-20T06:11:57;98709.60;;;10.40
69007;BMP180;56061;51.748;19.620;2022-09-20T06:14:45;98708.40;;;10.40
69007;BMP180;56061;51.748;19.620;2022-09-20T06:20:17;98708.60;;;10.50
69007;BMP180;56061;51.748;19.620;2022-09-20T06:22:52;98710.20;;;10.52
69007;BMP180;56061;51.748;19.620;2022-09-20T06:25:39;98714.00;;;10.60
69007;BMP180;56061;51.748;19.620;2022-09-20T06:28:19;98709.20;;;10.70
69007;BMP180;56061;51.748;19.620;2022-09-20T06:30:52;98713.20;;;10.70
69007;BMP180;56061;51.748;19.620;2022-09-20T06:33:26;98719.40;;;10.80
69007;BMP180;56061;51.748;19.620;2022-09-20T06:36:06;98718.20;;;10.90
69007;BMP180;56061;51.748;19.620;2022-09-20T06:42:21;98723.40;;;10.90
69007;BMP180;56061;51.748;19.620;2022-09-20T06:44:52;98729.20;;;10.92
69007;BMP180;56061;51.748;19.620;2022-09-20T06:47:18;98734.00;;;11.00
69007;BMP180;56061;51.748;19.620;2022-09-20T06:49:45;98739.80;;;11.00
69007;BMP180;56061;51.748;19.620;2022-09-20T06:52:16;98737.00;;;11.10
69007;BMP180;56061;51.748;19.620;2022-09-20T06:54:45;98735.80;;;11.22
69007;BMP180;56061;51.748;19.620;2022-09-20T06:57:17;98734.60;;;11.30
69007;BMP180;56061;51.748;19.620;2022-09-20T06:59:44;98740.80;;;11.34
69007;BMP180;56061;51.748;19.620;2022-09-20T07:02:11;98736.00;;;11.30
69007;BMP180;56061;51.748;19.620;2022-09-20T07:04:37;98739.00;;;11.30
69007;BMP180;56061;51.748;19.620;2022-09-20T07:07:06;98737.60;;;11.30
69007;BMP180;56061;51.748;19.620;2022-09-20T07:09:35;98736.60;;;11.30
69007;BMP180;56061;51.748;19.620;2022-09-20T07:12:01;98750.20;;;11.30
69007;BMP180;56061;51.748;19.620;2022-09-20T07:14:28;98753.80;;;11.30
69007;BMP180;56061;51.748;19.620;2022-09-20T07:16:55;98763.40;;;11.30
69007;BMP180;56061;51.748;19.620;2022-09-20T07:19:21;98756.40;;;11.40
69007;BMP180;56061;51.748;19.620;2022-09-20T07:21:51;98754.80;;;11.40
69007;BMP180;56061;51.748;19.620;2022-09-20T07:24:17;98755.80;;;11.50
69007;BMP180;56061;51.748;19.620;2022-09-20T07:26:58;98766.20;;;11.40
69007;BMP180;56061;51.748;19.620;2022-09-20T07:29:25;98766.40;;;11.48
69007;BMP180;56061;51.748;19.620;2022-09-20T07:31:53;98762.40;;;11.60
69007;BMP180;56061;51.748;19.620;2022-09-20T07:34:20;98758.60;;;11.78
69007;BMP180;56061;51.748;19.620;2022-09-20T07:36:47;98759.00;;;11.90
69007;BMP180;56061;51.748;19.620;2022-09-20T07:39:16;98763.60;;;12.00
69007;BMP180;56061;51.748;19.620;2022-09-20T07:41:43;98768.60;;;11.92
69007;BMP180;56061;51.748;19.620;2022-09-20T07:44:14;98767.20;;;11.80
69007;BMP180;56061;51.748;19.620;2022-09-20T07:46:51;98767.40;;;11.84
69007;BMP180;56061;51.748;19.620;2022-09-20T07:49:20;98770.20;;;11.90
69007;BMP180;56061;51.748;19.620;2022-09-20T07:51:49;98767.40;;;11.90
69007;BMP180;56061;51.748;19.620;2022-09-20T07:54:16;98765.20;;;12.00
69007;BMP180;56061;51.748;19.620;2022-09-20T07:56:44;98771.00;;;12.18
69007;BMP180;56061;51.748;19.620;2022-09-20T07:59:12;98773.60;;;12.30
69007;BMP180;56061;51.748;19.620;2022-09-20T08:01:39;98777.40;;;12.30
69007;BMP180;56061;51.748;19.620;2022-09-20T08:04:08;98781.40;;;12.30
69007;BMP180;56061;51.748;19.620;2022-09-20T08:06:37;98779.60;;;12.28
69007;BMP180;56061;51.748;19.620;2022-09-20T08:09:05;98783.80;;;12.20
69007;BMP180;56061;51.748;19.620;2022-09-20T08:11:37;98784.80;;;12.20
69007;BMP180;56061;51.748;19.620;2022-09-20T08:14:06;98781.80;;;12.20
69007;BMP180;56061;51.748;19.620;2022-09-20T08:16:47;98782.20;;;12.16
69007;BMP180;56061;51.748;19.620;2022-09-20T08:19:19;98787.40;;;12.10
69007;BMP180;56061;51.748;19.620;2022-09-20T08:21:48;98781.40;;;12.10
69007;BMP180;56061;51.748;19.620;2022-09-20T08:24:16;98788.60;;;12.20
69007;BMP180;56061;51.748;19.620;2022-09-20T08:26:43;98785.20;;;12.30
69007;BMP180;56061;51.748;19.620;2022-09-20T08:29:10;98786.40;;;12.38
69007;BMP180;56061;51.748;19.620;2022-09-20T08:31:38;98789.80;;;12.50
69007;BMP180;56061;51.748;19.620;2022-09-20T08:34:11;98793.40;;;12.60
69007;BMP180;56061;51.748;19.620;2022-09-20T08:36:42;98787.20;;;12.84
69007;BMP180;56061;51.748;19.620;2022-09-20T08:39:13;98785.40;;;13.20
69007;BMP180;56061;51.748;19.620;2022-09-20T08:42:31;98780.40;;;13.64
69007;BMP180;56061;51.748;19.620;2022-09-20T08:45:17;98778.60;;;13.90
69007;BMP180;56061;51.748;19.620;2022-09-20T08:48:05;98776.20;;;14.00
69007;BMP180;56061;51.748;19.620;2022-09-20T08:50:33;98778.40;;;14.00
69007;BMP180;56061;51.748;19.620;2022-09-20T08:53:01;98786.60;;;13.90
69007;BMP180;56061;51.748;19.620;2022-09-20T08:55:31;98789.60;;;13.90
69007;BMP180;56061;51.748;19.620;2022-09-20T08:58:09;98797.80;;;13.90
69007;BMP180;56061;51.748;19.620;2022-09-20T09:00:45;98794.60;;;13.80
69007;BMP180;56061;51.748;19.620;2022-09-20T09:03:14;98790.00;;;13.90
69007;BMP180;56061;51.748;19.620;2022-09-20T09:05:50;98800.60;;;13.90
69007;BMP180;56061;51.748;19.620;2022-09-20T09:08:27;98800.80;;;14.00
69007;BMP180;56061;51.748;19.620;2022-09-20T09:11:01;98802.20;;;13.90
69007;BMP180;56061;51.748;19.620;2022-09-20T09:16:19;98795.80;;;14.10
69007;BMP180;56061;51.748;19.620;2022-09-20T09:18:50;98793.00;;;14.20
69007;BMP180;56061;51.748;19.620;2022-09-20T09:21:36;98793.40;;;14.42
69007;BMP180;56061;51.748;19.620;2022-09-20T09:24:18;98792.80;;;14.60
69007;BMP180;56061;51.748;19.620;2022-09-20T09:26:45;98787.80;;;14.70
69007;BMP180;56061;51.748;19.620;2022-09-20T09:29:19;98788.00;;;14.62
69007;BMP180;56061;51.748;19.620;2022-09-20T09:31:51;98792.00;;;14.50
69007;BMP180;56061;51.748;19.620;2022-09-20T09:34:26;98797.60;;;14.40
69007;BMP180;56061;51.748;19.620;2022-09-20T09:36:54;98794.20;;;14.50
69007;BMP180;56061;51.748;19.620;2022-09-20T09:39:31;98793.60;;;14.60
69007;BMP180;56061;51.748;19.620;2022-09-20T09:41:59;98796.40;;;14.80
69007;BMP180;56061;51.748;19.620;2022-09-20T09:44:31;98798.40;;;14.90
69007;BMP180;56061;51.748;19.620;2022-09-20T09:47:00;98796.20;;;15.00
69007;BMP180;56061;51.748;19.620;2022-09-20T09:49:30;98799.40;;;15.00
69007;BMP180;56061;51.748;19.620;2022-09-20T09:52:14;98802.20;;;15.00
69007;BMP180;56061;51.748;19.620;2022-09-20T09:54:49;98801.00;;;15.00
69007;BMP180;56061;51.748;19.620;2022-09-20T09:57:43;98802.00;;;15.00
69007;BMP180;56061;51.748;19.620;2022-09-20T10:00:23;98805.60;;;15.00
69007;BMP180;56061;51.748;19.620;2022-09-20T10:06:23;98809.80;;;15.00
69007;BMP180;56061;51.748;19.620;2022-09-20T10:09:21;98811.60;;;15.14
69007;BMP180;56061;51.748;19.620;2022-09-20T10:15:24;98824.00;;;15.18
69007;BMP180;56061;51.748;19.620;2022-09-20T10:24:42;98831.80;;;14.90
69007;BMP180;56061;51.748;19.620;2022-09-20T10:30:24;98831.00;;;14.90
69007;BMP180;56061;51.748;19.620;2022-09-20T10:33:26;98829.40;;;14.90
69007;BMP180;56061;51.748;19.620;2022-09-20T10:36:04;98837.80;;;14.90
69007;BMP180;56061;51.748;19.620;2022-09-20T10:38:52;98833.60;;;14.90
69007;BMP180;56061;51.748;19.620;2022-09-20T10:48:04;98840.00;;;15.20
69007;BMP180;56061;51.748;19.620;2022-09-20T10:56:43;98836.80;;;15.20
69007;BMP180;56061;51.748;19.620;2022-09-20T10:59:41;98843.60;;;15.20
69007;BMP180;56061;51.748;19.620;2022-09-20T11:02:24;98845.00;;;15.20
69007;BMP180;56061;51.748;19.620;2022-09-20T11:05:22;98848.00;;;15.30
69007;BMP180;56061;51.748;19.620;2022-09-20T11:08:16;98854.40;;;15.26
69007;BMP180;56061;51.748;19.620;2022-09-20T11:10:53;98860.80;;;15.00
69007;BMP180;56061;51.748;19.620;2022-09-20T11:16:41;98865.20;;;14.70
69007;BMP180;56061;51.748;19.620;2022-09-20T11:19:21;98859.00;;;14.70
69007;BMP180;56061;51.748;19.620;2022-09-20T11:22:13;98863.40;;;14.80
69007;BMP180;56061;51.748;19.620;2022-09-20T11:24:51;98864.00;;;14.70
69007;BMP180;56061;51.748;19.620;2022-09-20T11:27:56;98868.40;;;14.80
69007;BMP180;56061;51.748;19.620;2022-09-20T11:30:24;98864.00;;;14.80
69007;BMP180;56061;51.748;19.620;2022-09-20T11:33:31;98877.00;;;14.72
69007;BMP180;56061;51.748;19.620;2022-09-20T11:35:55;98875.80;;;14.70
69007;BMP180;56061;51.748;19.620;2022-09-20T11:38:34;98879.80;;;14.50
69007;BMP180;56061;51.748;19.620;2022-09-20T11:41:20;98878.40;;;14.30
69007;BMP180;56061;51.748;19.620;2022-09-20T11:43:49;98884.20;;;14.30
69007;BMP180;56061;51.748;19.620;2022-09-20T11:46:32;98882.80;;;14.30
69007;BMP180;56061;51.748;19.620;2022-09-20T11:49:45;98877.20;;;14.38
69007;BMP180;56061;51.748;19.620;2022-09-20T11:52:33;98881.00;;;14.30
69007;BMP180;56061;51.748;19.620;2022-09-20T11:55:19;98884.80;;;14.26
69007;BMP180;56061;51.748;19.620;2022-09-20T11:58:05;98884.80;;;14.20
69007;BMP180;56061;51.748;19.620;2022-09-20T12:00:37;98883.00;;;14.30
69007;BMP180;56061;51.748;19.620;2022-09-20T12:03:24;98881.40;;;14.40
69007;BMP180;56061;51.748;19.620;2022-09-20T12:06:00;98874.20;;;14.70
69007;BMP180;56061;51.748;19.620;2022-09-20T12:08:40;98879.00;;;14.90
69007;BMP180;56061;51.748;19.620;2022-09-20T12:11:13;98878.60;;;15.10
69007;BMP180;56061;51.748;19.620;2022-09-20T12:13:56;98878.20;;;15.10
69007;BMP180;56061;51.748;19.620;2022-09-20T12:16:44;98882.40;;;14.90
69007;BMP180;56061;51.748;19.620;2022-09-20T12:19:34;98877.00;;;14.78
69007;BMP180;56061;51.748;19.620;2022-09-20T12:24:33;98866.20;;;14.90
69007;BMP180;56061;51.748;19.620;2022-09-20T12:30:20;98857.40;;;15.30
69007;BMP180;56061;51.748;19.620;2022-09-20T12:32:52;98860.60;;;15.50
69007;BMP180;56061;51.748;19.620;2022-09-20T12:41:09;98858.40;;;15.50
69007;BMP180;56061;51.748;19.620;2022-09-20T12:43:49;98865.40;;;15.50
69007;BMP180;56061;51.748;19.620;2022-09-20T12:46:28;98861.00;;;15.50
69007;BMP180;56061;51.748;19.620;2022-09-20T12:49:21;98855.20;;;15.70
69007;BMP180;56061;51.748;19.620;2022-09-20T12:52:47;98856.80;;;15.92
69007;BMP180;56061;51.748;19.620;2022-09-20T12:55:36;98856.20;;;16.10
69007;BMP180;56061;51.748;19.620;2022-09-20T13:01:25;98853.40;;;16.00
69007;BMP180;56061;51.748;19.620;2022-09-20T13:03:48;98847.80;;;15.90
69007;BMP180;56061;51.748;19.620;2022-09-20T13:06:24;98854.60;;;16.00
69007;BMP180;56061;51.748;19.620;2022-09-20T13:11:40;98854.20;;;16.20
69007;BMP180;56061;51.748;19.620;2022-09-20T13:14:17;98842.60;;;16.28
69007;BMP180;56061;51.748;19.620;2022-09-20T13:16:58;98853.20;;;16.30
69007;BMP180;56061;51.748;19.620;2022-09-20T13:19:31;98857.20;;;16.30
69007;BMP180;56061;51.748;19.620;2022-09-20T13:24:33;98864.20;;;15.92
69007;BMP180;56061;51.748;19.620;2022-09-20T13:27:08;98860.40;;;15.60
69007;BMP180;56061;51.748;19.620;2022-09-20T13:29:42;98862.00;;;15.30
69007;BMP180;56061;51.748;19.620;2022-09-20T13:32:28;98858.40;;;15.24
69007;BMP180;56061;51.748;19.620;2022-09-20T13:37:50;98857.40;;;15.30
69007;BMP180;56061;51.748;19.620;2022-09-20T13:40:35;98858.60;;;15.44
69007;BMP180;56061;51.748;19.620;2022-09-20T13:46:29;98869.60;;;15.60
69007;BMP180;56061;51.748;19.620;2022-09-20T13:49:30;98872.20;;;15.50
69007;BMP180;56061;51.748;19.620;2022-09-20T13:51:57;98868.80;;;15.50
69007;BMP180;56061;51.748;19.620;2022-09-20T13:54:30;98872.00;;;15.50
69007;BMP180;56061;51.748;19.620;2022-09-20T13:57:04;98867.20;;;15.50
69007;BMP180;56061;51.748;19.620;2022-09-20T13:59:38;98866.40;;;15.60
69007;BMP180;56061;51.748;19.620;2022-09-20T14:02:23;98863.60;;;15.60
69007;BMP180;56061;51.748;19.620;2022-09-20T14:04:54;98857.20;;;15.60
69007;BMP180;56061;51.748;19.620;2022-09-20T14:07:23;98856.80;;;15.60
69007;BMP180;56061;51.748;19.620;2022-09-20T14:09:51;98855.60;;;15.70
69007;BMP180;56061;51.748;19.620;2022-09-20T14:12:19;98850.80;;;15.80
69007;BMP180;56061;51.748;19.620;2022-09-20T14:14:48;98849.80;;;15.86
69007;BMP180;56061;51.748;19.620;2022-09-20T14:17:19;98848.00;;;16.00
69007;BMP180;56061;51.748;19.620;2022-09-20T14:19:50;98849.20;;;16.20
69007;BMP180;56061;51.748;19.620;2022-09-20T14:22:27;98854.20;;;16.30
69007;BMP180;56061;51.748;19.620;2022-09-20T14:25:24;98845.20;;;16.20
69007;BMP180;56061;51.748;19.620;2022-09-20T14:28:18;98844.00;;;16.20
69007;BMP180;56061;51.748;19.620;2022-09-20T14:30:47;98838.40;;;16.30
69007;BMP180;56061;51.748;19.620;2022-09-20T14:33:18;98841.80;;;16.50
69007;BMP180;56061;51.748;19.620;2022-09-20T14:35:48;98837.60;;;16.60
69007;BMP180;56061;51.748;19.620;2022-09-20T14:38:21;98847.00;;;16.70
69007;BMP180;56061;51.748;19.620;2022-09-20T14:40:50;98842.20;;;16.60
69007;BMP180;56061;51.748;19.620;2022-09-20T14:43:31;98851.00;;;16.60
69007;BMP180;56061;51.748;19.620;2022-09-20T14:46:03;98853.80;;;16.60
69007;BMP180;56061;51.748;19.620;2022-09-20T14:48:37;98858.00;;;16.60
69007;BMP180;56061;51.748;19.620;2022-09-20T14:51:19;98861.20;;;16.50
69007;BMP180;56061;51.748;19.620;2022-09-20T14:56:46;98862.80;;;16.20
69007;BMP180;56061;51.748;19.620;2022-09-20T15:02:07;98868.80;;;16.10
69007;BMP180;56061;51.748;19.620;2022-09-20T15:04:39;98874.00;;;16.00
69007;BMP180;56061;51.748;19.620;2022-09-20T15:07:09;98871.60;;;16.02
69007;BMP180;56061;51.748;19.620;2022-09-20T15:09:36;98868.00;;;16.00
69007;BMP180;56061;51.748;19.620;2022-09-20T15:12:12;98874.80;;;15.94
69007;BMP180;56061;51.748;19.620;2022-09-20T15:14:39;98879.60;;;15.80
69007;BMP180;56061;51.748;19.620;2022-09-20T15:17:14;98880.40;;;15.80
69007;BMP180;56061;51.748;19.620;2022-09-20T15:19:41;98879.60;;;15.60
69007;BMP180;56061;51.748;19.620;2022-09-20T15:22:09;98877.20;;;15.50
69007;BMP180;56061;51.748;19.620;2022-09-20T15:24:37;98884.60;;;15.40
69007;BMP180;56061;51.748;19.620;2022-09-20T15:27:05;98885.40;;;15.26
69007;BMP180;56061;51.748;19.620;2022-09-20T15:29:31;98890.60;;;15.04
69007;BMP180;56061;51.748;19.620;2022-09-20T15:31:58;98901.40;;;14.80
69007;BMP180;56061;51.748;19.620;2022-09-20T15:34:25;98904.80;;;14.70
69007;BMP180;56061;51.748;19.620;2022-09-20T15:36:53;98913.80;;;14.50
69007;BMP180;56061;51.748;19.620;2022-09-20T15:39:19;98935.20;;;14.40
69007;BMP180;56061;51.748;19.620;2022-09-20T15:41:51;98946.40;;;13.86
69007;BMP180;56061;51.748;19.620;2022-09-20T15:44:18;98945.60;;;13.08
69007;BMP180;56061;51.748;19.620;2022-09-20T15:46:46;98943.80;;;12.60
69007;BMP180;56061;51.748;19.620;2022-09-20T15:49:14;98945.60;;;12.36
69007;BMP180;56061;51.748;19.620;2022-09-20T15:51:40;98942.80;;;12.20
69007;BMP180;56061;51.748;19.620;2022-09-20T15:54:13;98945.60;;;11.94
69007;BMP180;56061;51.748;19.620;2022-09-20T15:56:40;98944.80;;;11.76
69007;BMP180;56061;51.748;19.620;2022-09-20T15:59:10;98946.60;;;11.80
69007;BMP180;56061;51.748;19.620;2022-09-20T16:01:40;98944.80;;;11.80
69007;BMP180;56061;51.748;19.620;2022-09-20T16:04:09;98940.60;;;11.70
69007;BMP180;56061;51.748;19.620;2022-09-20T16:06:40;98944.80;;;11.70
69007;BMP180;56061;51.748;19.620;2022-09-20T16:09:08;98948.60;;;11.80
69007;BMP180;56061;51.748;19.620;2022-09-20T16:11:38;98952.40;;;11.80
69007;BMP180;56061;51.748;19.620;2022-09-20T16:14:05;98954.00;;;11.80
69007;BMP180;56061;51.748;19.620;2022-09-20T16:16:33;98953.40;;;11.80
69007;BMP180;56061;51.748;19.620;2022-09-20T16:19:07;98953.40;;;11.80
69007;BMP180;56061;51.748;19.620;2022-09-20T16:21:47;98947.40;;;11.80
69007;BMP180;56061;51.748;19.620;2022-09-20T16:24:33;98948.00;;;11.70
69007;BMP180;56061;51.748;19.620;2022-09-20T16:27:04;98949.00;;;11.70
69007;BMP180;56061;51.748;19.620;2022-09-20T16:29:31;98949.60;;;11.70
69007;BMP180;56061;51.748;19.620;2022-09-20T16:31:59;98953.00;;;11.72
69007;BMP180;56061;51.748;19.620;2022-09-20T16:34:29;98947.40;;;11.80
69007;BMP180;56061;51.748;19.620;2022-09-20T16:37:09;98954.20;;;11.90
69007;BMP180;56061;51.748;19.620;2022-09-20T16:39:37;98955.60;;;11.90
69007;BMP180;56061;51.748;19.620;2022-09-20T16:42:05;98957.40;;;11.90
69007;BMP180;56061;51.748;19.620;2022-09-20T16:44:38;98955.20;;;11.90
69007;BMP180;56061;51.748;19.620;2022-09-20T16:47:10;98960.60;;;11.80
69007;BMP180;56061;51.748;19.620;2022-09-20T16:49:37;98965.20;;;11.80
69007;BMP180;56061;51.748;19.620;2022-09-20T16:52:06;98962.60;;;11.80
69007;BMP180;56061;51.748;19.620;2022-09-20T16:54:34;98969.20;;;11.70
69007;BMP180;56061;51.748;19.620;2022-09-20T16:57:02;98970.40;;;11.70
69007;BMP180;56061;51.748;19.620;2022-09-20T16:59:28;98972.00;;;11.60
69007;BMP180;56061;51.748;19.620;2022-09-20T17:01:55;98970.00;;;11.60
69007;BMP180;56061;51.748;19.620;2022-09-20T17:04:22;98974.00;;;11.54
69007;BMP180;56061;51.748;19.620;2022-09-20T17:06:49;98971.80;;;11.50
69007;BMP180;56061;51.748;19.620;2022-09-20T17:09:16;98977.80;;;11.42
69007;BMP180;56061;51.748;19.620;2022-09-20T17:11:47;98977.20;;;11.40
69007;BMP180;56061;51.748;19.620;2022-09-20T17:14:18;98983.80;;;11.30
69007;BMP180;56061;51.748;19.620;2022-09-20T17:16:46;98987.00;;;11.20
69007;BMP180;56061;51.748;19.620;2022-09-20T17:19:17;98985.60;;;11.20
69007;BMP180;56061;51.748;19.620;2022-09-20T17:21:47;98990.00;;;11.16
69007;BMP180;56061;51.748;19.620;2022-09-20T17:24:21;98997.00;;;11.10
69007;BMP180;56061;51.748;19.620;2022-09-20T17:26:49;98997.20;;;11.08
69007;BMP180;56061;51.748;19.620;2022-09-20T17:29:18;99008.00;;;11.00
69007;BMP180;56061;51.748;19.620;2022-09-20T17:31:48;99007.40;;;11.00
69007;BMP180;56061;51.748;19.620;2022-09-20T17:34:21;99012.00;;;10.98
69007;BMP180;56061;51.748;19.620;2022-09-20T17:36:51;99015.80;;;11.00
69007;BMP180;56061;51.748;19.620;2022-09-20T17:39:19;99022.60;;;11.00
69007;BMP180;56061;51.748;19.620;2022-09-20T17:41:48;99026.20;;;11.00
69007;BMP180;56061;51.748;19.620;2022-09-20T17:44:15;99024.20;;;11.00
69007;BMP180;56061;51.748;19.620;2022-09-20T17:46:45;99024.00;;;11.00
69007;BMP180;56061;51.748;19.620;2022-09-20T17:49:16;99030.00;;;11.10
69007;BMP180;56061;51.748;19.620;2022-09-20T17:51:49;99035.00;;;11.10
69007;BMP180;56061;51.748;19.620;2022-09-20T17:54:17;99036.20;;;10.90
69007;BMP180;56061;51.748;19.620;2022-09-20T17:56:47;99040.80;;;10.90
69007;BMP180;56061;51.748;19.620;2022-09-20T17:59:15;99042.80;;;10.90
69007;BMP180;56061;51.748;19.620;2022-09-20T18:01:45;99042.00;;;10.90
69007;BMP180;56061;51.748;19.620;2022-09-20T18:04:13;99042.60;;;10.90